sensor_id;sensor_type;location;lat;lon;timestamp;P1;durP1;ratioP1;P2;durP2;ratioP2
68806;SDS011;55800;54.272;18.558;2023-06-14T00:04:35;8.07;;;3.58;;
68806;SDS011;55800;54.272;18.558;2023-06-14T00:07:07;7.57;;;3.60;;
68806;SDS011;55800;54.272;18.558;2023-06-14T00:09:40;8.48;;;3.80;;
68806;SDS011;55800;54.272;18.558;2023-06-14T00:12:10;10.57;;;3.55;;
68806;SDS011;55800;54.272;18.558;2023-06-14T00:14:39;7.90;;;3.72;;
68806;SDS011;55800;54.272;18.558;2023-06-14T00:19:37;9.07;;;3.92;;
68806;SDS011;55800;54.272;18.558;2023-06-14T00:22:08;8.70;;;3.63;;
68806;SDS011;55800;54.272;18.558;2023-06-14T00:24:39;10.90;;;4.38;;
68806;SDS011;55800;54.272;18.558;2023-06-14T00:27:08;11.73;;;3.95;;
68806;SDS011;55800;54.272;18.558;2023-06-14T00:29:38;9.73;;;3.88;;
68806;SDS011;55800;54.272;18.558;2023-06-14T00:34:36;7.38;;;3.55;;
68806;SDS011;55800;54.272;18.558;2023-06-14T00:37:09;8.38;;;3.50;;
68806;SDS011;55800;54.272;18.558;2023-06-14T00:39:38;8.93;;;3.80;;
68806;SDS011;55800;54.272;18.558;2023-06-14T00:42:07;7.22;;;3.85;;
68806;SDS011;55800;54.272;18.558;2023-06-14T00:44:36;5.90;;;3.65;;
68806;SDS011;55800;54.272;18.558;2023-06-14T00:49:35;11.18;;;3.92;;
68806;SDS011;55800;54.272;18.558;2023-06-14T00:54:35;6.63;;;3.25;;
68806;SDS011;55800;54.272;18.558;2023-06-14T00:57:04;7.75;;;3.70;;
68806;SDS011;55800;54.272;18.558;2023-06-14T00:59:34;9.18;;;3.60;;
68806;SDS011;55800;54.272;18.558;2023-06-14T01:02:06;6.70;;;3.78;;
68806;SDS011;55800;54.272;18.558;2023-06-14T01:04:36;8.57;;;5.72;;
68806;SDS011;55800;54.272;18.558;2023-06-14T01:07:08;8.90;;;4.65;;
68806;SDS011;55800;54.272;18.558;2023-06-14T01:09:55;7.95;;;3.67;;
68806;SDS011;55800;54.272;18.558;2023-06-14T01:12:36;8.75;;;3.47;;
68806;SDS011;55800;54.272;18.558;2023-06-14T01:15:13;6.33;;;3.70;;
68806;SDS011;55800;54.272;18.558;2023-06-14T01:17:44;6.05;;;3.13;;
68806;SDS011;55800;54.272;18.558;2023-06-14T01:20:19;8.70;;;3.10;;
68806;SDS011;55800;54.272;18.558;2023-06-14T01:22:52;7.47;;;3.80;;
68806;SDS011;55800;54.272;18.558;2023-06-14T01:25:22;14.05;;;3.80;;
68806;SDS011;55800;54.272;18.558;2023-06-14T01:27:53;12.52;;;3.83;;
68806;SDS011;55800;54.272;18.558;2023-06-14T01:30:25;14.75;;;4.00;;
68806;SDS011;55800;54.272;18.558;2023-06-14T01:32:55;7.70;;;3.45;;
68806;SDS011;55800;54.272;18.558;2023-06-14T01:35:25;7.40;;;3.17;;
68806;SDS011;55800;54.272;18.558;2023-06-14T01:40:29;6.90;;;3.45;;
68806;SDS011;55800;54.272;18.558;2023-06-14T01:43:01;9.15;;;4.13;;
68806;SDS011;55800;54.272;18.558;2023-06-14T01:45:31;6.75;;;3.45;;
68806;SDS011;55800;54.272;18.558;2023-06-14T01:48:01;14.20;;;5.90;;
68806;SDS011;55800;54.272;18.558;2023-06-14T01:50:31;11.27;;;4.35;;
68806;SDS011;55800;54.272;18.558;2023-06-14T01:55:31;11.27;;;5.20;;
68806;SDS011;55800;54.272;18.558;2023-06-14T01:58:06;10.15;;;4.60;;
68806;SDS011;55800;54.272;18.558;2023-06-14T02:00:35;8.50;;;4.90;;
68806;SDS011;55800;54.272;18.558;2023-06-14T02:03:05;8.57;;;4.07;;
68806;SDS011;55800;54.272;18.558;2023-06-14T02:05:34;8.20;;;3.35;;
68806;SDS011;55800;54.272;18.558;2023-06-14T02:08:07;9.52;;;4.38;;
68806;SDS011;55800;54.272;18.558;2023-06-14T02:10:37;9.10;;;4.00;;
68806;SDS011;55800;54.272;18.558;2023-06-14T02:13:06;12.75;;;3.83;;
68806;SDS011;55800;54.272;18.558;2023-06-14T02:15:36;10.40;;;4.38;;
68806;SDS011;55800;54.272;18.558;2023-06-14T02:18:05;8.55;;;4.03;;
68806;SDS011;55800;54.272;18.558;2023-06-14T02:23:04;8.50;;;3.13;;
68806;SDS011;55800;54.272;18.558;2023-06-14T02:25:35;7.97;;;3.70;;
68806;SDS011;55800;54.272;18.558;2023-06-14T02:28:07;7.85;;;3.47;;
68806;SDS011;55800;54.272;18.558;2023-06-14T02:33:49;8.25;;;3.83;;
68806;SDS011;55800;54.272;18.558;2023-06-14T02:36:19;10.73;;;4.15;;
68806;SDS011;55800;54.272;18.558;2023-06-14T02:41:21;8.52;;;3.50;;
68806;SDS011;55800;54.272;18.558;2023-06-14T02:43:52;9.50;;;5.07;;
68806;SDS011;55800;54.272;18.558;2023-06-14T02:46:23;7.70;;;3.42;;
68806;SDS011;55800;54.272;18.558;2023-06-14T02:51:21;7.80;;;3.55;;
68806;SDS011;55800;54.272;18.558;2023-06-14T02:56:21;9.13;;;3.78;;
68806;SDS011;55800;54.272;18.558;2023-06-14T02:58:50;6.90;;;3.60;;
68806;SDS011;55800;54.272;18.558;2023-06-14T03:01:20;11.13;;;3.83;;
68806;SDS011;55800;54.272;18.558;2023-06-14T03:03:50;10.48;;;3.63;;
68806;SDS011;55800;54.272;18.558;2023-06-14T03:08:54;7.13;;;3.70;;
68806;SDS011;55800;54.272;18.558;2023-06-14T03:11:28;5.75;;;3.80;;
68806;SDS011;55800;54.272;18.558;2023-06-14T03:13:58;7.35;;;4.38;;
68806;SDS011;55800;54.272;18.558;2023-06-14T03:16:31;8.93;;;4.18;;
68806;SDS011;55800;54.272;18.558;2023-06-14T03:19:00;17.45;;;5.45;;
68806;SDS011;55800;54.272;18.558;2023-06-14T03:21:31;8.23;;;3.35;;
68806;SDS011;55800;54.272;18.558;2023-06-14T03:24:04;8.25;;;4.57;;
68806;SDS011;55800;54.272;18.558;2023-06-14T03:26:34;9.30;;;5.22;;
68806;SDS011;55800;54.272;18.558;2023-06-14T03:29:05;14.57;;;4.63;;
68806;SDS011;55800;54.272;18.558;2023-06-14T03:31:34;15.60;;;3.47;;
68806;SDS011;55800;54.272;18.558;2023-06-14T03:34:05;13.02;;;4.78;;
68806;SDS011;55800;54.272;18.558;2023-06-14T03:36:34;11.93;;;4.50;;
68806;SDS011;55800;54.272;18.558;2023-06-14T03:39:05;9.45;;;3.75;;
68806;SDS011;55800;54.272;18.558;2023-06-14T03:41:34;8.98;;;4.40;;
68806;SDS011;55800;54.272;18.558;2023-06-14T03:46:33;10.85;;;3.88;;
68806;SDS011;55800;54.272;18.558;2023-06-14T03:51:31;7.32;;;2.90;;
68806;SDS011;55800;54.272;18.558;2023-06-14T03:54:02;8.50;;;4.57;;
68806;SDS011;55800;54.272;18.558;2023-06-14T03:56:53;12.75;;;4.63;;
68806;SDS011;55800;54.272;18.558;2023-06-14T03:59:24;11.85;;;4.60;;
68806;SDS011;55800;54.272;18.558;2023-06-14T04:01:55;21.90;;;4.57;;
68806;SDS011;55800;54.272;18.558;2023-06-14T04:04:24;8.05;;;3.90;;
68806;SDS011;55800;54.272;18.558;2023-06-14T04:06:57;12.20;;;4.07;;
68806;SDS011;55800;54.272;18.558;2023-06-14T04:09:29;12.60;;;4.32;;
68806;SDS011;55800;54.272;18.558;2023-06-14T04:11:59;12.13;;;4.05;;
68806;SDS011;55800;54.272;18.558;2023-06-14T04:14:32;13.52;;;4.53;;
68806;SDS011;55800;54.272;18.558;2023-06-14T04:19:32;13.23;;;5.25;;
68806;SDS011;55800;54.272;18.558;2023-06-14T04:22:01;31.00;;;5.47;;
68806;SDS011;55800;54.272;18.558;2023-06-14T04:24:35;21.02;;;5.50;;
68806;SDS011;55800;54.272;18.558;2023-06-14T04:27:05;10.63;;;4.90;;
68806;SDS011;55800;54.272;18.558;2023-06-14T04:29:36;10.30;;;4.03;;
68806;SDS011;55800;54.272;18.558;2023-06-14T04:32:10;10.75;;;4.35;;
68806;SDS011;55800;54.272;18.558;2023-06-14T04:34:40;10.88;;;4.80;;
68806;SDS011;55800;54.272;18.558;2023-06-14T04:37:11;10.05;;;5.13;;
68806;SDS011;55800;54.272;18.558;2023-06-14T04:39:43;15.60;;;4.97;;
68806;SDS011;55800;54.272;18.558;2023-06-14T04:42:12;10.98;;;4.45;;
68806;SDS011;55800;54.272;18.558;2023-06-14T04:44:43;8.45;;;4.43;;
68806;SDS011;55800;54.272;18.558;2023-06-14T04:47:14;13.75;;;5.53;;
68806;SDS011;55800;54.272;18.558;2023-06-14T04:49:43;20.95;;;6.03;;
68806;SDS011;55800;54.272;18.558;2023-06-14T04:52:13;14.68;;;6.78;;
68806;SDS011;55800;54.272;18.558;2023-06-14T04:54:46;20.58;;;6.47;;
68806;SDS011;55800;54.272;18.558;2023-06-14T04:57:18;12.85;;;5.32;;
68806;SDS011;55800;54.272;18.558;2023-06-14T04:59:52;13.07;;;6.28;;
68806;SDS011;55800;54.272;18.558;2023-06-14T05:02:22;12.25;;;6.00;;
68806;SDS011;55800;54.272;18.558;2023-06-14T05:04:53;12.27;;;5.65;;
68806;SDS011;55800;54.272;18.558;2023-06-14T05:07:23;13.82;;;6.00;;
68806;SDS011;55800;54.272;18.558;2023-06-14T05:09:55;14.38;;;4.93;;
68806;SDS011;55800;54.272;18.558;2023-06-14T05:12:25;13.70;;;5.30;;
68806;SDS011;55800;54.272;18.558;2023-06-14T05:14:57;17.00;;;5.70;;
68806;SDS011;55800;54.272;18.558;2023-06-14T05:17:27;13.38;;;6.75;;
68806;SDS011;55800;54.272;18.558;2023-06-14T05:19:56;16.02;;;6.53;;
68806;SDS011;55800;54.272;18.558;2023-06-14T05:24:56;18.77;;;5.60;;
68806;SDS011;55800;54.272;18.558;2023-06-14T05:27:25;14.40;;;5.85;;
68806;SDS011;55800;54.272;18.558;2023-06-14T05:29:55;15.55;;;5.63;;
68806;SDS011;55800;54.272;18.558;2023-06-14T05:32:25;18.05;;;5.63;;
68806;SDS011;55800;54.272;18.558;2023-06-14T05:34:55;13.82;;;6.55;;
68806;SDS011;55800;54.272;18.558;2023-06-14T05:39:53;16.45;;;6.38;;
68806;SDS011;55800;54.272;18.558;2023-06-14T05:42:24;16.33;;;6.68;;
68806;SDS011;55800;54.272;18.558;2023-06-14T05:44:53;16.95;;;6.05;;
68806;SDS011;55800;54.272;18.558;2023-06-14T05:47:22;19.23;;;6.45;;
68806;SDS011;55800;54.272;18.558;2023-06-14T05:49:52;16.83;;;7.38;;
68806;SDS011;55800;54.272;18.558;2023-06-14T05:52:22;21.52;;;6.60;;
68806;SDS011;55800;54.272;18.558;2023-06-14T05:54:52;21.17;;;6.88;;
68806;SDS011;55800;54.272;18.558;2023-06-14T05:57:21;19.52;;;7.38;;
68806;SDS011;55800;54.272;18.558;2023-06-14T05:59:52;21.73;;;7.28;;
68806;SDS011;55800;54.272;18.558;2023-06-14T06:04:50;15.88;;;7.03;;
68806;SDS011;55800;54.272;18.558;2023-06-14T06:12:17;20.52;;;8.45;;
68806;SDS011;55800;54.272;18.558;2023-06-14T06:14:48;15.27;;;7.53;;
68806;SDS011;55800;54.272;18.558;2023-06-14T06:17:17;17.42;;;8.02;;
68806;SDS011;55800;54.272;18.558;2023-06-14T06:19:47;20.50;;;8.30;;
68806;SDS011;55800;54.272;18.558;2023-06-14T06:24:45;16.67;;;7.85;;
68806;SDS011;55800;54.272;18.558;2023-06-14T06:27:14;18.60;;;8.15;;
68806;SDS011;55800;54.272;18.558;2023-06-14T06:29:45;24.52;;;8.75;;
68806;SDS011;55800;54.272;18.558;2023-06-14T06:32:16;21.55;;;9.57;;
68806;SDS011;55800;54.272;18.558;2023-06-14T06:34:46;17.38;;;7.43;;
68806;SDS011;55800;54.272;18.558;2023-06-14T06:37:15;23.42;;;8.18;;
68806;SDS011;55800;54.272;18.558;2023-06-14T06:39:44;19.95;;;8.40;;
68806;SDS011;55800;54.272;18.558;2023-06-14T06:42:14;20.67;;;8.10;;
68806;SDS011;55800;54.272;18.558;2023-06-14T06:44:43;16.88;;;7.13;;
68806;SDS011;55800;54.272;18.558;2023-06-14T06:47:13;23.80;;;8.70;;
68806;SDS011;55800;54.272;18.558;2023-06-14T06:49:44;18.70;;;8.88;;
68806;SDS011;55800;54.272;18.558;2023-06-14T06:52:13;17.85;;;7.70;;
68806;SDS011;55800;54.272;18.558;2023-06-14T06:54:42;23.52;;;8.85;;
68806;SDS011;55800;54.272;18.558;2023-06-14T06:57:12;18.80;;;8.82;;
68806;SDS011;55800;54.272;18.558;2023-06-14T06:59:41;18.85;;;9.32;;
68806;SDS011;55800;54.272;18.558;2023-06-14T07:02:10;19.70;;;8.88;;
68806;SDS011;55800;54.272;18.558;2023-06-14T07:04:40;19.20;;;8.10;;
68806;SDS011;55800;54.272;18.558;2023-06-14T07:07:10;15.65;;;8.88;;
68806;SDS011;55800;54.272;18.558;2023-06-14T07:09:39;23.02;;;8.07;;
68806;SDS011;55800;54.272;18.558;2023-06-14T07:12:09;21.35;;;8.60;;
68806;SDS011;55800;54.272;18.558;2023-06-14T07:14:39;16.58;;;7.70;;
68806;SDS011;55800;54.272;18.558;2023-06-14T07:17:08;21.35;;;8.57;;
68806;SDS011;55800;54.272;18.558;2023-06-14T07:19:38;24.95;;;8.82;;
68806;SDS011;55800;54.272;18.558;2023-06-14T07:22:10;19.83;;;9.02;;
68806;SDS011;55800;54.272;18.558;2023-06-14T07:24:40;24.05;;;9.35;;
68806;SDS011;55800;54.272;18.558;2023-06-14T07:27:09;18.10;;;7.68;;
68806;SDS011;55800;54.272;18.558;2023-06-14T07:29:41;19.27;;;7.32;;
68806;SDS011;55800;54.272;18.558;2023-06-14T07:32:10;21.55;;;8.05;;
68806;SDS011;55800;54.272;18.558;2023-06-14T07:34:40;22.80;;;7.45;;
68806;SDS011;55800;54.272;18.558;2023-06-14T07:37:10;15.20;;;6.78;;
68806;SDS011;55800;54.272;18.558;2023-06-14T07:39:40;23.95;;;7.03;;
68806;SDS011;55800;54.272;18.558;2023-06-14T07:42:09;21.65;;;8.00;;
68806;SDS011;55800;54.272;18.558;2023-06-14T07:44:39;18.40;;;6.75;;
68806;SDS011;55800;54.272;18.558;2023-06-14T07:47:08;14.00;;;5.95;;
68806;SDS011;55800;54.272;18.558;2023-06-14T07:49:37;14.10;;;5.55;;
68806;SDS011;55800;54.272;18.558;2023-06-14T07:52:07;19.35;;;7.65;;
68806;SDS011;55800;54.272;18.558;2023-06-14T07:54:39;14.38;;;5.53;;
68806;SDS011;55800;54.272;18.558;2023-06-14T07:57:08;13.25;;;7.13;;
68806;SDS011;55800;54.272;18.558;2023-06-14T07:59:38;15.38;;;6.25;;
68806;SDS011;55800;54.272;18.558;2023-06-14T08:02:07;15.13;;;6.63;;
68806;SDS011;55800;54.272;18.558;2023-06-14T08:04:36;14.07;;;4.85;;
68806;SDS011;55800;54.272;18.558;2023-06-14T08:07:07;13.20;;;5.43;;
68806;SDS011;55800;54.272;18.558;2023-06-14T08:09:36;17.48;;;5.43;;
68806;SDS011;55800;54.272;18.558;2023-06-14T08:12:07;21.95;;;6.05;;
68806;SDS011;55800;54.272;18.558;2023-06-14T08:14:38;16.83;;;6.13;;
68806;SDS011;55800;54.272;18.558;2023-06-14T08:17:08;13.65;;;5.47;;
68806;SDS011;55800;54.272;18.558;2023-06-14T08:19:37;16.55;;;6.22;;
68806;SDS011;55800;54.272;18.558;2023-06-14T08:22:07;12.57;;;4.78;;
68806;SDS011;55800;54.272;18.558;2023-06-14T08:24:38;12.20;;;5.80;;
68806;SDS011;55800;54.272;18.558;2023-06-14T08:27:10;16.33;;;5.88;;
68806;SDS011;55800;54.272;18.558;2023-06-14T08:29:40;17.90;;;6.55;;
68806;SDS011;55800;54.272;18.558;2023-06-14T08:32:11;16.77;;;5.65;;
68806;SDS011;55800;54.272;18.558;2023-06-14T08:34:41;13.68;;;5.88;;
68806;SDS011;55800;54.272;18.558;2023-06-14T08:37:22;11.27;;;5.30;;
68806;SDS011;55800;54.272;18.558;2023-06-14T08:39:52;14.57;;;5.82;;
68806;SDS011;55800;54.272;18.558;2023-06-14T08:42:22;12.32;;;5.35;;
68806;SDS011;55800;54.272;18.558;2023-06-14T08:44:58;13.40;;;5.97;;
68806;SDS011;55800;54.272;18.558;2023-06-14T08:47:28;11.85;;;5.47;;
68806;SDS011;55800;54.272;18.558;2023-06-14T08:50:08;10.45;;;4.60;;
68806;SDS011;55800;54.272;18.558;2023-06-14T08:52:54;11.05;;;6.15;;
68806;SDS011;55800;54.272;18.558;2023-06-14T08:55:27;17.48;;;5.85;;
68806;SDS011;55800;54.272;18.558;2023-06-14T08:58:02;15.75;;;6.35;;
68806;SDS011;55800;54.272;18.558;2023-06-14T09:00:32;9.10;;;5.40;;
68806;SDS011;55800;54.272;18.558;2023-06-14T09:03:01;13.18;;;5.93;;
68806;SDS011;55800;54.272;18.558;2023-06-14T09:05:36;13.93;;;5.63;;
68806;SDS011;55800;54.272;18.558;2023-06-14T09:08:05;11.52;;;5.63;;
68806;SDS011;55800;54.272;18.558;2023-06-14T09:10:34;15.30;;;6.07;;
68806;SDS011;55800;54.272;18.558;2023-06-14T09:13:06;10.40;;;5.00;;
68806;SDS011;55800;54.272;18.558;2023-06-14T09:15:36;10.85;;;5.00;;
68806;SDS011;55800;54.272;18.558;2023-06-14T09:18:05;14.82;;;6.03;;
68806;SDS011;55800;54.272;18.558;2023-06-14T09:20:35;18.70;;;7.22;;
68806;SDS011;55800;54.272;18.558;2023-06-14T09:23:04;15.90;;;6.25;;
68806;SDS011;55800;54.272;18.558;2023-06-14T09:25:41;19.02;;;7.15;;
68806;SDS011;55800;54.272;18.558;2023-06-14T09:28:14;19.10;;;5.90;;
68806;SDS011;55800;54.272;18.558;2023-06-14T09:30:43;16.25;;;7.55;;
68806;SDS011;55800;54.272;18.558;2023-06-14T09:33:16;16.20;;;7.57;;
68806;SDS011;55800;54.272;18.558;2023-06-14T09:35:46;17.73;;;8.20;;
68806;SDS011;55800;54.272;18.558;2023-06-14T09:38:18;18.15;;;9.77;;
68806;SDS011;55800;54.272;18.558;2023-06-14T09:40:49;22.20;;;9.82;;
68806;SDS011;55800;54.272;18.558;2023-06-14T09:43:20;21.08;;;9.23;;
68806;SDS011;55800;54.272;18.558;2023-06-14T09:45:51;18.80;;;10.15;;
68806;SDS011;55800;54.272;18.558;2023-06-14T09:48:21;20.05;;;9.48;;
68806;SDS011;55800;54.272;18.558;2023-06-14T09:50:51;27.02;;;13.45;;
68806;SDS011;55800;54.272;18.558;2023-06-14T09:53:23;22.65;;;12.15;;
68806;SDS011;55800;54.272;18.558;2023-06-14T09:55:54;23.85;;;10.65;;
68806;SDS011;55800;54.272;18.558;2023-06-14T09:58:26;22.83;;;12.30;;
68806;SDS011;55800;54.272;18.558;2023-06-14T10:00:58;25.05;;;12.18;;
68806;SDS011;55800;54.272;18.558;2023-06-14T10:03:30;23.45;;;11.48;;
68806;SDS011;55800;54.272;18.558;2023-06-14T10:06:20;22.55;;;11.90;;
68806;SDS011;55800;54.272;18.558;2023-06-14T10:08:52;16.88;;;9.30;;
68806;SDS011;55800;54.272;18.558;2023-06-14T10:11:24;16.00;;;8.07;;
68806;SDS011;55800;54.272;18.558;2023-06-14T10:13:56;24.98;;;9.88;;
68806;SDS011;55800;54.272;18.558;2023-06-14T10:16:28;17.23;;;7.57;;
68806;SDS011;55800;54.272;18.558;2023-06-14T10:19:03;21.40;;;8.23;;
68806;SDS011;55800;54.272;18.558;2023-06-14T10:21:37;21.30;;;8.10;;
68806;SDS011;55800;54.272;18.558;2023-06-14T10:24:16;17.63;;;6.78;;
68806;SDS011;55800;54.272;18.558;2023-06-14T10:26:51;20.65;;;6.60;;
68806;SDS011;55800;54.272;18.558;2023-06-14T10:29:27;11.85;;;5.75;;
68806;SDS011;55800;54.272;18.558;2023-06-14T10:32:00;16.45;;;7.35;;
68806;SDS011;55800;54.272;18.558;2023-06-14T10:34:30;12.10;;;5.18;;
68806;SDS011;55800;54.272;18.558;2023-06-14T10:37:02;16.38;;;6.05;;
68806;SDS011;55800;54.272;18.558;2023-06-14T10:39:38;13.95;;;5.35;;
68806;SDS011;55800;54.272;18.558;2023-06-14T10:42:09;11.10;;;5.03;;
68806;SDS011;55800;54.272;18.558;2023-06-14T10:44:41;11.82;;;4.65;;
68806;SDS011;55800;54.272;18.558;2023-06-14T10:47:24;7.80;;;4.03;;
68806;SDS011;55800;54.272;18.558;2023-06-14T10:49:55;10.40;;;4.18;;
68806;SDS011;55800;54.272;18.558;2023-06-14T10:52:32;8.77;;;4.00;;
68806;SDS011;55800;54.272;18.558;2023-06-14T10:55:06;10.82;;;3.92;;
68806;SDS011;55800;54.272;18.558;2023-06-14T10:57:43;11.93;;;4.05;;
68806;SDS011;55800;54.272;18.558;2023-06-14T11:00:20;7.90;;;3.63;;
68806;SDS011;55800;54.272;18.558;2023-06-14T11:06:12;6.85;;;3.47;;
68806;SDS011;55800;54.272;18.558;2023-06-14T11:08:51;9.90;;;4.32;;
68806;SDS011;55800;54.272;18.558;2023-06-14T11:11:44;13.02;;;4.55;;
68806;SDS011;55800;54.272;18.558;2023-06-14T11:14:16;10.13;;;4.28;;
68806;SDS011;55800;54.272;18.558;2023-06-14T11:16:49;9.65;;;5.22;;
68806;SDS011;55800;54.272;18.558;2023-06-14T11:19:19;10.88;;;4.97;;
68806;SDS011;55800;54.272;18.558;2023-06-14T11:21:49;14.95;;;6.85;;
68806;SDS011;55800;54.272;18.558;2023-06-14T11:24:19;12.68;;;5.40;;
68806;SDS011;55800;54.272;18.558;2023-06-14T11:26:48;11.32;;;5.50;;
68806;SDS011;55800;54.272;18.558;2023-06-14T11:29:19;14.45;;;6.38;;
68806;SDS011;55800;54.272;18.558;2023-06-14T11:31:50;14.68;;;5.93;;
68806;SDS011;55800;54.272;18.558;2023-06-14T11:34:20;13.38;;;5.63;;
68806;SDS011;55800;54.272;18.558;2023-06-14T11:36:49;20.38;;;6.47;;
68806;SDS011;55800;54.272;18.558;2023-06-14T11:39:21;12.52;;;5.47;;
68806;SDS011;55800;54.272;18.558;2023-06-14T11:41:54;19.45;;;6.38;;
68806;SDS011;55800;54.272;18.558;2023-06-14T11:44:24;9.82;;;3.97;;
68806;SDS011;55800;54.272;18.558;2023-06-14T11:46:55;11.63;;;3.90;;
68806;SDS011;55800;54.272;18.558;2023-06-14T11:49:25;11.52;;;4.15;;
68806;SDS011;55800;54.272;18.558;2023-06-14T11:51:54;9.75;;;3.30;;
68806;SDS011;55800;54.272;18.558;2023-06-14T11:54:24;10.35;;;4.72;;
68806;SDS011;55800;54.272;18.558;2023-06-14T11:56:53;15.82;;;5.15;;
68806;SDS011;55800;54.272;18.558;2023-06-14T11:59:23;13.60;;;4.35;;
68806;SDS011;55800;54.272;18.558;2023-06-14T12:01:55;14.77;;;4.53;;
68806;SDS011;55800;54.272;18.558;2023-06-14T12:04:26;10.70;;;4.43;;
68806;SDS011;55800;54.272;18.558;2023-06-14T12:06:55;14.50;;;6.28;;
68806;SDS011;55800;54.272;18.558;2023-06-14T12:09:41;11.13;;;4.65;;
68806;SDS011;55800;54.272;18.558;2023-06-14T12:12:35;9.40;;;4.30;;
68806;SDS011;55800;54.272;18.558;2023-06-14T12:15:06;10.65;;;6.65;;
68806;SDS011;55800;54.272;18.558;2023-06-14T12:17:39;12.68;;;6.32;;
68806;SDS011;55800;54.272;18.558;2023-06-14T12:20:11;11.55;;;4.93;;
68806;SDS011;55800;54.272;18.558;2023-06-14T12:22:52;17.05;;;7.05;;
68806;SDS011;55800;54.272;18.558;2023-06-14T12:25:24;7.32;;;4.45;;
68806;SDS011;55800;54.272;18.558;2023-06-14T12:27:57;10.23;;;5.03;;
68806;SDS011;55800;54.272;18.558;2023-06-14T12:30:27;8.88;;;3.78;;
68806;SDS011;55800;54.272;18.558;2023-06-14T12:32:58;18.23;;;4.22;;
68806;SDS011;55800;54.272;18.558;2023-06-14T12:35:28;9.77;;;4.18;;
68806;SDS011;55800;54.272;18.558;2023-06-14T12:37:57;8.27;;;4.15;;
68806;SDS011;55800;54.272;18.558;2023-06-14T12:40:27;9.02;;;3.90;;
68806;SDS011;55800;54.272;18.558;2023-06-14T12:42:56;15.02;;;3.95;;
68806;SDS011;55800;54.272;18.558;2023-06-14T12:45:26;9.35;;;4.97;;
68806;SDS011;55800;54.272;18.558;2023-06-14T12:47:56;12.73;;;3.30;;
68806;SDS011;55800;54.272;18.558;2023-06-14T12:50:31;6.80;;;3.15;;
68806;SDS011;55800;54.272;18.558;2023-06-14T12:53:01;9.20;;;3.33;;
68806;SDS011;55800;54.272;18.558;2023-06-14T12:55:31;8.65;;;3.40;;
68806;SDS011;55800;54.272;18.558;2023-06-14T12:58:00;12.32;;;4.30;;
68806;SDS011;55800;54.272;18.558;2023-06-14T13:00:30;9.90;;;3.10;;
68806;SDS011;55800;54.272;18.558;2023-06-14T13:03:01;8.60;;;4.05;;
68806;SDS011;55800;54.272;18.558;2023-06-14T13:05:31;9.95;;;3.65;;
68806;SDS011;55800;54.272;18.558;2023-06-14T13:08:00;7.05;;;3.10;;
68806;SDS011;55800;54.272;18.558;2023-06-14T13:10:29;12.15;;;3.72;;
68806;SDS011;55800;54.272;18.558;2023-06-14T13:12:58;7.18;;;3.13;;
68806;SDS011;55800;54.272;18.558;2023-06-14T13:15:28;8.52;;;3.40;;
68806;SDS011;55800;54.272;18.558;2023-06-14T13:17:57;11.32;;;3.65;;
68806;SDS011;55800;54.272;18.558;2023-06-14T13:20:28;7.43;;;3.15;;
68806;SDS011;55800;54.272;18.558;2023-06-14T13:22:57;14.63;;;4.03;;
68806;SDS011;55800;54.272;18.558;2023-06-14T13:25:27;10.65;;;3.95;;
68806;SDS011;55800;54.272;18.558;2023-06-14T13:27:56;6.65;;;3.30;;
68806;SDS011;55800;54.272;18.558;2023-06-14T13:30:26;9.88;;;4.40;;
68806;SDS011;55800;54.272;18.558;2023-06-14T13:32:55;10.65;;;3.78;;
68806;SDS011;55800;54.272;18.558;2023-06-14T13:35:25;14.63;;;3.33;;
68806;SDS011;55800;54.272;18.558;2023-06-14T13:37:56;11.35;;;3.30;;
68806;SDS011;55800;54.272;18.558;2023-06-14T13:40:25;8.75;;;4.70;;
68806;SDS011;55800;54.272;18.558;2023-06-14T13:42:54;11.10;;;3.40;;
68806;SDS011;55800;54.272;18.558;2023-06-14T13:45:23;19.35;;;3.63;;
68806;SDS011;55800;54.272;18.558;2023-06-14T13:47:52;13.90;;;3.97;;
68806;SDS011;55800;54.272;18.558;2023-06-14T13:50:22;13.15;;;3.17;;
68806;SDS011;55800;54.272;18.558;2023-06-14T13:52:51;9.02;;;3.33;;
68806;SDS011;55800;54.272;18.558;2023-06-14T13:55:22;13.30;;;3.83;;
68806;SDS011;55800;54.272;18.558;2023-06-14T13:57:51;9.30;;;3.20;;
68806;SDS011;55800;54.272;18.558;2023-06-14T14:00:21;12.63;;;3.95;;
68806;SDS011;55800;54.272;18.558;2023-06-14T14:02:50;9.50;;;3.45;;
68806;SDS011;55800;54.272;18.558;2023-06-14T14:05:21;8.00;;;3.20;;
68806;SDS011;55800;54.272;18.558;2023-06-14T14:07:55;8.07;;;3.28;;
68806;SDS011;55800;54.272;18.558;2023-06-14T14:10:26;7.90;;;2.72;;
68806;SDS011;55800;54.272;18.558;2023-06-14T14:12:55;11.00;;;3.55;;
68806;SDS011;55800;54.272;18.558;2023-06-14T14:15:25;6.10;;;3.10;;
68806;SDS011;55800;54.272;18.558;2023-06-14T14:17:55;17.83;;;3.83;;
68806;SDS011;55800;54.272;18.558;2023-06-14T14:20:25;7.07;;;3.25;;
68806;SDS011;55800;54.272;18.558;2023-06-14T14:22:55;16.40;;;3.97;;
68806;SDS011;55800;54.272;18.558;2023-06-14T14:25:26;16.48;;;3.35;;
68806;SDS011;55800;54.272;18.558;2023-06-14T14:27:56;13.95;;;3.63;;
68806;SDS011;55800;54.272;18.558;2023-06-14T14:30:25;12.30;;;3.45;;
68806;SDS011;55800;54.272;18.558;2023-06-14T14:32:54;11.32;;;3.92;;
68806;SDS011;55800;54.272;18.558;2023-06-14T14:35:24;8.43;;;3.55;;
68806;SDS011;55800;54.272;18.558;2023-06-14T14:37:57;10.43;;;2.97;;
68806;SDS011;55800;54.272;18.558;2023-06-14T14:40:28;7.85;;;2.92;;
68806;SDS011;55800;54.272;18.558;2023-06-14T14:42:57;7.88;;;3.42;;
68806;SDS011;55800;54.272;18.558;2023-06-14T14:45:27;8.10;;;3.00;;
68806;SDS011;55800;54.272;18.558;2023-06-14T14:47:56;8.93;;;3.00;;
68806;SDS011;55800;54.272;18.558;2023-06-14T14:50:26;7.80;;;3.80;;
68806;SDS011;55800;54.272;18.558;2023-06-14T14:52:56;11.00;;;3.80;;
68806;SDS011;55800;54.272;18.558;2023-06-14T14:55:25;7.45;;;2.97;;
68806;SDS011;55800;54.272;18.558;2023-06-14T14:57:56;8.85;;;3.20;;
68806;SDS011;55800;54.272;18.558;2023-06-14T15:00:25;5.47;;;2.53;;
68806;SDS011;55800;54.272;18.558;2023-06-14T15:02:54;10.57;;;3.75;;
68806;SDS011;55800;54.272;18.558;2023-06-14T15:05:24;8.48;;;3.20;;
68806;SDS011;55800;54.272;18.558;2023-06-14T15:07:53;27.15;;;3.80;;
68806;SDS011;55800;54.272;18.558;2023-06-14T15:10:23;7.57;;;3.28;;
68806;SDS011;55800;54.272;18.558;2023-06-14T15:12:52;6.47;;;2.97;;
68806;SDS011;55800;54.272;18.558;2023-06-14T15:15:23;7.95;;;3.53;;
68806;SDS011;55800;54.272;18.558;2023-06-14T15:17:53;5.95;;;2.80;;
68806;SDS011;55800;54.272;18.558;2023-06-14T15:20:22;7.25;;;3.85;;
68806;SDS011;55800;54.272;18.558;2023-06-14T15:22:51;6.20;;;2.78;;
68806;SDS011;55800;54.272;18.558;2023-06-14T15:25:22;14.88;;;3.70;;
68806;SDS011;55800;54.272;18.558;2023-06-14T15:27:52;10.93;;;3.38;;
68806;SDS011;55800;54.272;18.558;2023-06-14T15:30:23;11.55;;;3.95;;
68806;SDS011;55800;54.272;18.558;2023-06-14T15:32:52;12.95;;;3.67;;
68806;SDS011;55800;54.272;18.558;2023-06-14T15:35:21;10.43;;;3.28;;
68806;SDS011;55800;54.272;18.558;2023-06-14T15:37:50;10.27;;;3.17;;
68806;SDS011;55800;54.272;18.558;2023-06-14T15:40:20;8.50;;;3.92;;
68806;SDS011;55800;54.272;18.558;2023-06-14T15:42:49;7.55;;;4.05;;
68806;SDS011;55800;54.272;18.558;2023-06-14T15:45:18;9.63;;;3.28;;
68806;SDS011;55800;54.272;18.558;2023-06-14T15:47:49;11.48;;;3.28;;